Time;durP1;ratioP1;P1;durP2;ratioP2;P2;SDS_P1;SDS_P2;PMS_P1;PMS_P2;Temp;Humidity;BMP_temperature;BMP_pressure;BME280_temperature;BME280_humidity;BME280_pressure;Samples;Min_cycle;Max_cycle;Signal;HPM_P1;HPM_P2
2023/10/29 00:00:17;;;;;;;2.23;1.20;;;;;;;;;;5013700;28;20506;-66
2023/10/29 00:02:44;;;;;;;2.87;1.60;;;;;;;;;;5011062;28;20464;-67
2023/10/29 00:05:12;;;;;;;2.80;1.60;;;;;;;;;;5013539;28;20480;-66
2023/10/29 00:07:39;;;;;;;2.30;1.60;;;;;;;;;;5022282;28;20444;-67
2023/10/29 00:10:09;;;;;;;3.20;1.23;;;;;;;;;;5008672;28;20456;-67
2023/10/29 00:12:36;;;;;;;3.03;1.63;;;;;;;;;;5012728;28;20444;-66
2023/10/29 00:15:03;;;;;;;2.60;1.03;;;;;;;;;;5001226;28;20492;-66
2023/10/29 00:17:31;;;;;;;3.13;1.20;;;;;;;;;;5008980;28;20455;-66
2023/10/29 00:19:59;;;;;;;2.60;1.20;;;;;;;;;;5010830;28;20452;-67
2023/10/29 00:22:26;;;;;;;3.10;1.43;;;;;;;;;;5010157;28;20880;-67
2023/10/29 00:24:53;;;;;;;3.40;1.33;;;;;;;;;;5006677;28;20799;-67
2023/10/29 00:27:22;;;;;;;2.50;1.30;;;;;;;;;;5015015;28;20986;-67
2023/10/29 00:29:49;;;;;;;4.23;2.07;;;;;;;;;;5012132;28;20448;-67
2023/10/29 00:32:18;;;;;;;2.40;1.17;;;;;;;;;;5010487;28;20997;-67
2023/10/29 00:34:46;;;;;;;5.03;1.80;;;;;;;;;;5005818;28;20540;-67
2023/10/29 00:37:13;;;;;;;2.57;1.00;;;;;;;;;;5012001;28;20511;-67
2023/10/29 00:39:40;;;;;;;3.47;1.50;;;;;;;;;;5015519;28;20557;-67
2023/10/29 00:42:07;;;;;;;2.30;1.10;;;;;;;;;;5013227;28;20498;-67
2023/10/29 00:44:36;;;;;;;2.57;1.37;;;;;;;;;;5010456;28;20444;-67
2023/10/29 00:47:03;;;;;;;2.60;1.13;;;;;;;;;;5012535;28;21003;-67
2023/10/29 00:49:30;;;;;;;2.27;0.97;;;;;;;;;;5010818;28;20453;-66
2023/10/29 00:51:57;;;;;;;5.10;1.50;;;;;;;;;;5013175;28;20444;-66
2023/10/29 00:54:25;;;;;;;2.00;0.97;;;;;;;;;;5012789;28;20946;-66
2023/10/29 00:56:53;;;;;;;3.30;1.33;;;;;;;;;;5017917;28;20862;-67
2023/10/29 00:59:21;;;;;;;2.80;1.40;;;;;;;;;;5015173;28;20447;-67
2023/10/29 01:01:50;;;;;;;4.43;1.17;;;;;;;;;;5008539;28;20455;-66
2023/10/29 01:04:18;;;;;;;2.37;1.43;;;;;;;;;;5012397;28;20452;-67
2023/10/29 01:06:46;;;;;;;3.40;1.43;;;;;;;;;;5013429;28;20912;-66
2023/10/29 01:09:13;;;;;;;2.30;1.07;;;;;;;;;;5013588;28;20966;-66
2023/10/29 01:11:40;;;;;;;2.13;1.40;;;;;;;;;;5010883;28;20502;-66
2023/10/29 01:14:07;;;;;;;2.63;1.10;;;;;;;;;;5011269;28;20667;-66
2023/10/29 01:16:34;;;;;;;3.60;1.80;;;;;;;;;;5012981;28;20463;-66
2023/10/29 01:19:03;;;;;;;2.30;1.13;;;;;;;;;;5008518;28;20452;-68
2023/10/29 01:21:30;;;;;;;2.33;1.07;;;;;;;;;;5012446;28;20476;-66
2023/10/29 01:23:57;;;;;;;5.00;1.57;;;;;;;;;;5011821;28;20451;-66
2023/10/29 01:26:25;;;;;;;1.67;0.87;;;;;;;;;;5013766;28;20484;-66
2023/10/29 01:28:52;;;;;;;2.30;1.33;;;;;;;;;;5023642;28;20440;-66
2023/10/29 01:31:19;;;;;;;1.90;1.03;;;;;;;;;;5010399;28;20455;-66
2023/10/29 01:33:46;;;;;;;1.70;0.90;;;;;;;;;;5010894;28;20467;-67
2023/10/29 01:36:14;;;;;;;1.90;0.90;;;;;;;;;;5012080;28;20468;-67
2023/10/29 01:38:42;;;;;;;1.90;0.80;;;;;;;;;;5022437;28;20941;-66
2023/10/29 01:41:09;;;;;;;3.00;1.30;;;;;;;;;;5012771;28;20965;-67
2023/10/29 01:43:36;;;;;;;1.90;0.77;;;;;;;;;;5006586;28;20887;-67
2023/10/29 01:46:03;;;;;;;1.73;0.90;;;;;;;;;;5004500;28;20483;-67
2023/10/29 01:48:30;;;;;;;2.80;1.10;;;;;;;;;;5011738;28;20451;-67
2023/10/29 01:51:02;;;;;;;2.10;0.90;;;;;;;;;;5016409;28;20468;-67
2023/10/29 01:53:31;;;;;;;2.70;1.07;;;;;;;;;;5011203;28;20476;-67
2023/10/29 01:55:58;;;;;;;3.77;0.90;;;;;;;;;;5010943;28;20480;-67
2023/10/29 01:58:25;;;;;;;2.00;1.00;;;;;;;;;;5004420;28;20449;-67
2023/10/29 02:00:55;;;;;;;1.97;0.80;;;;;;;;;;5006578;28;20829;-67
2023/10/29 02:03:22;;;;;;;1.97;0.90;;;;;;;;;;5011907;28;20452;-67
2023/10/29 02:05:49;;;;;;;1.93;0.90;;;;;;;;;;5011480;28;20496;-67
2023/10/29 02:08:17;;;;;;;1.90;0.90;;;;;;;;;;5010890;28;20877;-67
2023/10/29 02:10:45;;;;;;;3.77;0.77;;;;;;;;;;5012015;28;20448;-67
2023/10/29 02:13:14;;;;;;;2.43;0.90;;;;;;;;;;4995804;28;20456;-67
2023/10/29 02:15:41;;;;;;;1.87;1.03;;;;;;;;;;5002250;28;20467;-67
2023/10/29 02:18:08;;;;;;;1.77;0.90;;;;;;;;;;5018752;28;20460;-67
2023/10/29 02:20:35;;;;;;;1.80;0.60;;;;;;;;;;5016512;28;20444;-67
2023/10/29 02:23:04;;;;;;;2.27;1.07;;;;;;;;;;5012386;28;20959;-67
2023/10/29 02:25:31;;;;;;;1.97;0.80;;;;;;;;;;5005470;28;20567;-66
2023/10/29 02:27:58;;;;;;;1.73;0.73;;;;;;;;;;5016168;28;20447;-67
2023/10/29 02:30:26;;;;;;;1.73;0.87;;;;;;;;;;5005853;28;20828;-67
2023/10/29 02:32:53;;;;;;;2.47;1.00;;;;;;;;;;5011363;28;20856;-67
2023/10/29 02:35:20;;;;;;;1.70;0.80;;;;;;;;;;5009653;28;20476;-67
2023/10/29 02:37:48;;;;;;;1.83;0.70;;;;;;;;;;5005056;28;20954;-67
2023/10/29 02:40:16;;;;;;;1.80;0.93;;;;;;;;;;5006031;28;20482;-67
2023/10/29 02:42:43;;;;;;;2.73;1.00;;;;;;;;;;5009926;28;20456;-67
2023/10/29 02:45:10;;;;;;;2.07;0.80;;;;;;;;;;5012856;28;20866;-67
2023/10/29 02:47:37;;;;;;;3.97;0.80;;;;;;;;;;5001624;28;20495;-67
2023/10/29 02:50:05;;;;;;;3.60;1.03;;;;;;;;;;5010375;28;20450;-67
2023/10/29 02:52:32;;;;;;;2.40;1.00;;;;;;;;;;5011654;28;20470;-67
2023/10/29 02:54:59;;;;;;;1.87;0.70;;;;;;;;;;5009956;28;20456;-67
2023/10/29 02:57:29;;;;;;;1.50;0.67;;;;;;;;;;5009054;28;20463;-67
2023/10/29 02:59:56;;;;;;;2.57;0.73;;;;;;;;;;5010318;28;20495;-68
2023/10/29 03:02:23;;;;;;;1.83;0.97;;;;;;;;;;5011856;28;20460;-67
2023/10/29 03:04:51;;;;;;;2.57;1.00;;;;;;;;;;5008578;28;20447;-67
2023/10/29 03:07:18;;;;;;;5.90;0.93;;;;;;;;;;5016919;28;20487;-66
2023/10/29 03:09:45;;;;;;;2.27;0.90;;;;;;;;;;5012769;28;20470;-67
2023/10/29 03:12:12;;;;;;;1.93;0.70;;;;;;;;;;5014486;28;21348;-67
2023/10/29 03:14:41;;;;;;;2.20;0.90;;;;;;;;;;5013552;28;20473;-67
2023/10/29 03:17:08;;;;;;;1.60;0.70;;;;;;;;;;5011599;28;20480;-67
2023/10/29 03:19:35;;;;;;;1.80;0.70;;;;;;;;;;5012613;28;20542;-67
2023/10/29 03:22:04;;;;;;;1.70;0.73;;;;;;;;;;5013521;28;20451;-67
2023/10/29 03:24:32;;;;;;;1.90;0.73;;;;;;;;;;5012422;28;20463;-67
2023/10/29 03:26:59;;;;;;;1.97;0.80;;;;;;;;;;5015701;28;20871;-66
2023/10/29 03:29:26;;;;;;;2.00;1.10;;;;;;;;;;5012019;28;20452;-66
2023/10/29 03:31:54;;;;;;;1.80;0.97;;;;;;;;;;5010591;28;20800;-66
2023/10/29 03:34:21;;;;;;;1.90;0.80;;;;;;;;;;5012837;28;20483;-67
2023/10/29 03:36:48;;;;;;;2.10;1.20;;;;;;;;;;5013731;28;20476;-66
2023/10/29 03:39:16;;;;;;;1.87;0.67;;;;;;;;;;5012278;28;20460;-67
2023/10/29 03:41:43;;;;;;;1.80;0.80;;;;;;;;;;5009093;28;20448;-67
2023/10/29 03:44:10;;;;;;;2.73;1.20;;;;;;;;;;5008828;28;20448;-66
2023/10/29 03:46:37;;;;;;;2.30;1.07;;;;;;;;;;5005931;28;20499;-67
2023/10/29 03:49:06;;;;;;;2.27;0.60;;;;;;;;;;5014759;28;20503;-66
2023/10/29 03:51:33;;;;;;;2.00;1.00;;;;;;;;;;5011129;28;20460;-67
2023/10/29 03:54:00;;;;;;;1.60;0.80;;;;;;;;;;5009143;28;20474;-67
2023/10/29 03:56:27;;;;;;;1.80;0.90;;;;;;;;;;5011238;28;20468;-67
2023/10/29 03:58:54;;;;;;;1.90;1.13;;;;;;;;;;5016917;28;20452;-67
2023/10/29 04:01:21;;;;;;;1.50;0.60;;;;;;;;;;5011924;28;20939;-66
2023/10/29 04:03:48;;;;;;;2.00;0.80;;;;;;;;;;5005458;28;20452;-66
2023/10/29 04:06:16;;;;;;;2.30;0.70;;;;;;;;;;5013019;28;20581;-66
2023/10/29 04:08:43;;;;;;;2.00;0.70;;;;;;;;;;5008954;28;21153;-66
2023/10/29 04:11:10;;;;;;;1.80;0.57;;;;;;;;;;5013343;28;20455;-67
2023/10/29 04:13:37;;;;;;;2.00;0.83;;;;;;;;;;5009081;28;20448;-66
2023/10/29 04:16:05;;;;;;;4.03;1.30;;;;;;;;;;5004006;28;20464;-68
2023/10/29 04:18:33;;;;;;;2.00;0.80;;;;;;;;;;5011326;28;20459;-68
2023/10/29 04:21:02;;;;;;;1.60;0.80;;;;;;;;;;5008684;28;20540;-67
2023/10/29 04:23:30;;;;;;;2.60;0.80;;;;;;;;;;5008358;28;20461;-68
2023/10/29 04:25:57;;;;;;;2.10;0.80;;;;;;;;;;5012687;28;20463;-68
2023/10/29 04:28:24;;;;;;;2.30;0.90;;;;;;;;;;5010593;28;20476;-67
2023/10/29 04:30:53;;;;;;;1.90;0.83;;;;;;;;;;5008278;28;20934;-67
2023/10/29 04:33:20;;;;;;;2.33;1.10;;;;;;;;;;5012266;28;20961;-67
2023/10/29 04:35:47;;;;;;;3.83;1.27;;;;;;;;;;5012267;28;20468;-67
2023/10/29 04:38:15;;;;;;;1.60;0.70;;;;;;;;;;5013873;28;20522;-67
2023/10/29 04:40:44;;;;;;;1.70;0.70;;;;;;;;;;5006406;28;20459;-67
2023/10/29 04:43:11;;;;;;;2.20;0.90;;;;;;;;;;5008172;28;20471;-68
2023/10/29 04:45:38;;;;;;;2.07;0.90;;;;;;;;;;4993035;28;20515;-68
2023/10/29 04:48:06;;;;;;;1.60;0.70;;;;;;;;;;4991526;28;20480;-67
2023/10/29 04:50:33;;;;;;;3.63;0.70;;;;;;;;;;5007660;28;20554;-66
2023/10/29 04:53:02;;;;;;;2.90;1.03;;;;;;;;;;5012049;28;20855;-68
2023/10/29 04:55:29;;;;;;;2.20;0.70;;;;;;;;;;5009722;28;20522;-67
2023/10/29 04:57:57;;;;;;;2.13;0.67;;;;;;;;;;5007018;28;20452;-67
2023/10/29 05:00:24;;;;;;;1.90;0.83;;;;;;;;;;5009127;28;20455;-67
2023/10/29 05:02:52;;;;;;;2.80;0.80;;;;;;;;;;5007928;28;20535;-67
2023/10/29 05:05:19;;;;;;;1.70;0.60;;;;;;;;;;5010681;28;20537;-67
2023/10/29 05:07:46;;;;;;;2.20;0.80;;;;;;;;;;5013465;28;20468;-67
2023/10/29 05:10:14;;;;;;;5.97;0.90;;;;;;;;;;5012490;28;20872;-66
2023/10/29 05:12:41;;;;;;;1.70;0.70;;;;;;;;;;5011980;28;20515;-67
2023/10/29 05:15:13;;;;;;;1.70;0.70;;;;;;;;;;5003506;28;20484;-68
2023/10/29 05:17:41;;;;;;;1.70;0.70;;;;;;;;;;5010924;28;20514;-68
2023/10/29 05:20:10;;;;;;;1.97;0.83;;;;;;;;;;5011376;28;20553;-66
2023/10/29 05:22:37;;;;;;;3.00;0.90;;;;;;;;;;5006600;28;20815;-68
2023/10/29 05:25:04;;;;;;;1.70;0.60;;;;;;;;;;5011294;28;20452;-67
2023/10/29 05:27:32;;;;;;;5.10;0.80;;;;;;;;;;5013447;28;20484;-67
2023/10/29 05:29:59;;;;;;;1.70;0.70;;;;;;;;;;5007834;28;20452;-67
2023/10/29 05:32:28;;;;;;;2.87;1.00;;;;;;;;;;5004435;28;20456;-68
2023/10/29 05:34:55;;;;;;;1.73;0.83;;;;;;;;;;5006207;28;20471;-68
2023/10/29 05:37:23;;;;;;;1.70;0.60;;;;;;;;;;5013058;28;20875;-67
2023/10/29 05:39:51;;;;;;;1.70;0.90;;;;;;;;;;5010087;28;21021;-68
2023/10/29 05:42:19;;;;;;;1.80;0.50;;;;;;;;;;5009711;28;20444;-68
2023/10/29 05:44:46;;;;;;;2.37;0.90;;;;;;;;;;5008124;28;20483;-68
2023/10/29 05:47:13;;;;;;;1.60;0.60;;;;;;;;;;5011961;28;20509;-68
2023/10/29 05:49:41;;;;;;;2.10;0.80;;;;;;;;;;5011751;28;20452;-68
2023/10/29 05:52:08;;;;;;;2.87;0.67;;;;;;;;;;5009170;28;20464;-67
2023/10/29 05:54:35;;;;;;;1.80;0.80;;;;;;;;;;5004042;28;20496;-67
2023/10/29 05:57:02;;;;;;;2.00;0.60;;;;;;;;;;5014110;28;20464;-67
2023/10/29 05:59:31;;;;;;;1.57;0.60;;;;;;;;;;5010943;28;20444;-67
2023/10/29 06:01:58;;;;;;;1.53;0.63;;;;;;;;;;5006009;28;20455;-67
2023/10/29 06:04:26;;;;;;;1.97;0.50;;;;;;;;;;5007734;28;20447;-67
2023/10/29 06:06:54;;;;;;;2.33;0.80;;;;;;;;;;5014328;28;20643;-67
2023/10/29 06:09:21;;;;;;;1.50;0.60;;;;;;;;;;5004186;28;20472;-67
2023/10/29 06:11:48;;;;;;;1.60;0.50;;;;;;;;;;4989625;28;22095;-67
2023/10/29 06:14:15;;;;;;;2.30;0.97;;;;;;;;;;5003172;28;20457;-70
2023/10/29 06:16:42;;;;;;;1.80;0.60;;;;;;;;;;5009487;28;20518;-67
2023/10/29 06:19:09;;;;;;;1.50;0.50;;;;;;;;;;5008846;28;20938;-67
2023/10/29 06:21:36;;;;;;;1.80;0.70;;;;;;;;;;4996907;28;20474;-67
2023/10/29 06:24:05;;;;;;;2.00;0.90;;;;;;;;;;5012721;28;20770;-67
2023/10/29 06:26:32;;;;;;;2.03;0.83;;;;;;;;;;5007823;28;20472;-68
2023/10/29 06:28:59;;;;;;;3.10;0.70;;;;;;;;;;5014264;28;20480;-67
2023/10/29 06:31:29;;;;;;;1.70;0.60;;;;;;;;;;5007157;28;20471;-67
2023/10/29 06:33:56;;;;;;;1.73;0.73;;;;;;;;;;5010151;28;20448;-67
2023/10/29 06:36:23;;;;;;;1.50;0.60;;;;;;;;;;5010031;28;20522;-67
2023/10/29 06:38:50;;;;;;;1.40;0.40;;;;;;;;;;5015263;28;20810;-67
2023/10/29 06:41:19;;;;;;;1.60;0.50;;;;;;;;;;5014797;28;20450;-67
2023/10/29 06:43:46;;;;;;;2.93;0.93;;;;;;;;;;5009091;28;20464;-67
2023/10/29 06:46:15;;;;;;;1.80;0.70;;;;;;;;;;5013797;28;20475;-68
2023/10/29 06:48:42;;;;;;;1.93;0.80;;;;;;;;;;5014569;28;20558;-67
2023/10/29 06:51:10;;;;;;;3.40;0.70;;;;;;;;;;5017677;28;20450;-67
2023/10/29 06:53:37;;;;;;;1.80;0.67;;;;;;;;;;5019279;28;20455;-67
2023/10/29 06:56:05;;;;;;;1.80;0.70;;;;;;;;;;5013001;28;20464;-67
2023/10/29 06:58:34;;;;;;;1.60;0.70;;;;;;;;;;5011928;28;20487;-67
2023/10/29 07:01:04;;;;;;;2.33;0.83;;;;;;;;;;5006176;28;20460;-68
2023/10/29 07:03:31;;;;;;;3.37;1.10;;;;;;;;;;5004265;28;20830;-67
2023/10/29 07:06:05;;;;;;;1.90;0.90;;;;;;;;;;5031075;23;20492;-68
2023/10/29 07:08:32;;;;;;;1.73;0.70;;;;;;;;;;4995482;28;20507;-66
2023/10/29 07:11:00;;;;;;;1.60;0.60;;;;;;;;;;4999831;28;20457;-67
2023/10/29 07:13:27;;;;;;;2.77;1.20;;;;;;;;;;4994856;28;20445;-67
2023/10/29 07:15:55;;;;;;;2.00;0.90;;;;;;;;;;4994701;28;20487;-67
2023/10/29 07:18:23;;;;;;;1.77;0.70;;;;;;;;;;4997632;28;20445;-67
2023/10/29 07:20:52;;;;;;;1.80;0.70;;;;;;;;;;5002938;28;20465;-67
2023/10/29 07:23:20;;;;;;;1.70;0.70;;;;;;;;;;4998030;28;20445;-67
2023/10/29 07:25:48;;;;;;;1.50;0.53;;;;;;;;;;4996193;28;20529;-66
2023/10/29 07:28:15;;;;;;;2.20;0.70;;;;;;;;;;4995393;28;20475;-66
2023/10/29 07:30:42;;;;;;;1.80;0.73;;;;;;;;;;4995742;28;20472;-66
2023/10/29 07:33:11;;;;;;;1.50;0.60;;;;;;;;;;4991055;28;20525;-66
2023/10/29 07:35:38;;;;;;;25.30;13.80;;;;;;;;;;4994952;28;20851;-67
2023/10/29 07:38:07;;;;;;;2.40;1.10;;;;;;;;;;4994916;28;20458;-66
2023/10/29 07:40:35;;;;;;;3.00;0.97;;;;;;;;;;4998886;28;20866;-67
2023/10/29 07:43:03;;;;;;;2.03;0.90;;;;;;;;;;4991335;28;20951;-67
2023/10/29 07:45:30;;;;;;;1.80;0.70;;;;;;;;;;4993800;28;20481;-68
2023/10/29 07:47:58;;;;;;;2.00;0.80;;;;;;;;;;5007829;28;20479;-66
2023/10/29 07:50:27;;;;;;;2.20;0.93;;;;;;;;;;4994318;28;20449;-66
2023/10/29 07:52:54;;;;;;;2.77;1.07;;;;;;;;;;4992097;28;20457;-66
2023/10/29 07:55:21;;;;;;;1.67;0.80;;;;;;;;;;4991634;28;20486;-66
2023/10/29 07:57:48;;;;;;;2.20;0.90;;;;;;;;;;4990735;28;20456;-66
2023/10/29 08:00:17;;;;;;;2.73;1.27;;;;;;;;;;4993941;28;20495;-67
2023/10/29 08:02:44;;;;;;;2.57;1.13;;;;;;;;;;4988783;28;20479;-67
2023/10/29 08:05:11;;;;;;;2.20;0.90;;;;;;;;;;4998428;28;20939;-67
2023/10/29 08:07:40;;;;;;;1.87;0.80;;;;;;;;;;4988035;28;20484;-67
2023/10/29 08:10:08;;;;;;;2.33;1.00;;;;;;;;;;4993698;28;21328;-68
2023/10/29 08:12:35;;;;;;;1.60;0.70;;;;;;;;;;4992284;28;20967;-67
2023/10/29 08:15:03;;;;;;;1.87;0.77;;;;;;;;;;4998076;28;20853;-68
2023/10/29 08:17:30;;;;;;;1.70;0.80;;;;;;;;;;4998850;28;20465;-67
2023/10/29 08:19:58;;;;;;;2.30;1.03;;;;;;;;;;4991446;28;20452;-67
2023/10/29 08:22:25;;;;;;;1.97;0.80;;;;;;;;;;4993263;28;20468;-67
2023/10/29 08:24:54;;;;;;;2.00;0.73;;;;;;;;;;4999044;28;20448;-67
2023/10/29 08:27:21;;;;;;;2.70;0.97;;;;;;;;;;4994062;28;20472;-67
2023/10/29 08:29:49;;;;;;;3.50;1.17;;;;;;;;;;4997601;28;20488;-67
2023/10/29 08:32:16;;;;;;;1.90;0.80;;;;;;;;;;4994074;28;20457;-67
2023/10/29 08:34:43;;;;;;;2.23;1.03;;;;;;;;;;4994573;28;20441;-67
2023/10/29 08:37:11;;;;;;;2.73;1.07;;;;;;;;;;4981711;28;20477;-67
2023/10/29 08:39:38;;;;;;;2.10;0.70;;;;;;;;;;4986806;28;20548;-68
2023/10/29 08:42:07;;;;;;;2.27;0.70;;;;;;;;;;4985663;28;20453;-68
2023/10/29 08:44:34;;;;;;;1.53;0.67;;;;;;;;;;4991922;28;20881;-66
2023/10/29 08:47:01;;;;;;;2.10;0.77;;;;;;;;;;4996012;28;20469;-67
2023/10/29 08:49:28;;;;;;;1.50;0.63;;;;;;;;;;4991484;28;20486;-68
2023/10/29 08:51:56;;;;;;;3.00;0.80;;;;;;;;;;4998037;28;20870;-72
2023/10/29 08:54:23;;;;;;;20.07;7.40;;;;;;;;;;4993823;28;20535;-69
2023/10/29 08:56:50;;;;;;;1.90;0.80;;;;;;;;;;4988381;28;20468;-71
2023/10/29 08:59:19;;;;;;;1.57;0.67;;;;;;;;;;4990602;28;20456;-71
2023/10/29 09:01:47;;;;;;;2.03;0.93;;;;;;;;;;4989305;28;20515;-71
2023/10/29 09:04:14;;;;;;;2.57;1.23;;;;;;;;;;4991552;28;20671;-71
2023/10/29 09:06:43;;;;;;;2.37;0.90;;;;;;;;;;4993163;28;20491;-70
2023/10/29 09:09:11;;;;;;;1.87;0.77;;;;;;;;;;4994904;28;20489;-72
2023/10/29 09:11:39;;;;;;;2.27;1.20;;;;;;;;;;4994991;28;20476;-72
2023/10/29 09:14:07;;;;;;;1.70;0.90;;;;;;;;;;4991228;28;20473;-72
2023/10/29 09:16:35;;;;;;;1.40;0.60;;;;;;;;;;4990772;28;20511;-72
2023/10/29 09:19:03;;;;;;;2.63;1.20;;;;;;;;;;4990439;28;20448;-72
2023/10/29 09:21:30;;;;;;;2.20;0.60;;;;;;;;;;4993812;28;20445;-71
2023/10/29 09:23:57;;;;;;;1.80;0.77;;;;;;;;;;4987818;28;20456;-72
2023/10/29 09:26:24;;;;;;;1.83;0.90;;;;;;;;;;4989700;28;20857;-72
2023/10/29 09:28:51;;;;;;;1.40;0.70;;;;;;;;;;4985380;28;20745;-71
2023/10/29 09:31:18;;;;;;;1.90;0.80;;;;;;;;;;4991782;28;20957;-70
2023/10/29 09:33:47;;;;;;;1.60;0.60;;;;;;;;;;4993756;28;20468;-70
2023/10/29 09:36:14;;;;;;;2.10;0.83;;;;;;;;;;4997416;28;20557;-71
2023/10/29 09:38:43;;;;;;;1.80;0.90;;;;;;;;;;4993698;28;20986;-70
2023/10/29 09:41:10;;;;;;;2.40;0.90;;;;;;;;;;4987684;28;20499;-71
2023/10/29 09:43:40;;;;;;;2.90;1.17;;;;;;;;;;4999397;28;20463;-71
2023/10/29 09:46:08;;;;;;;3.20;0.90;;;;;;;;;;4988853;28;20495;-71
2023/10/29 09:48:36;;;;;;;2.00;0.90;;;;;;;;;;4992713;28;20519;-70
2023/10/29 09:51:05;;;;;;;2.03;0.90;;;;;;;;;;4990214;28;20454;-71
2023/10/29 09:53:33;;;;;;;5.33;2.17;;;;;;;;;;4982400;28;20519;-70
2023/10/29 09:56:00;;;;;;;2.00;0.80;;;;;;;;;;4991396;28;21003;-72
2023/10/29 09:58:27;;;;;;;3.80;1.77;;;;;;;;;;4983266;28;20453;-71
2023/10/29 10:00:54;;;;;;;3.30;1.43;;;;;;;;;;4992937;28;20467;-72
2023/10/29 10:03:21;;;;;;;1.87;0.87;;;;;;;;;;4990262;28;20469;-71
2023/10/29 10:05:48;;;;;;;1.50;0.70;;;;;;;;;;4990059;28;20492;-71
2023/10/29 10:08:24;;;;;;;2.60;1.60;;;;;;;;;;4988531;28;20472;-71
2023/10/29 10:10:52;;;;;;;3.50;1.80;;;;;;;;;;4984734;28;20512;-72
2023/10/29 10:13:19;;;;;;;2.27;1.10;;;;;;;;;;4994328;28;20448;-71
2023/10/29 10:15:48;;;;;;;7.23;3.37;;;;;;;;;;4992815;28;20469;-70
2023/10/29 10:18:15;;;;;;;3.50;1.53;;;;;;;;;;4989321;28;20464;-70
2023/10/29 10:20:42;;;;;;;2.43;1.27;;;;;;;;;;4994307;28;20472;-70
2023/10/29 10:23:11;;;;;;;2.60;1.03;;;;;;;;;;4991006;28;20468;-70
2023/10/29 10:25:40;;;;;;;2.20;0.90;;;;;;;;;;4990829;28;21033;-70
2023/10/29 10:28:07;;;;;;;2.00;0.90;;;;;;;;;;4995131;28;20889;-70
2023/10/29 10:30:37;;;;;;;3.40;1.40;;;;;;;;;;4991988;28;20477;-70
2023/10/29 10:33:11;;;;;;;1.80;1.10;;;;;;;;;;4991652;28;20465;-70
2023/10/29 10:35:42;;;;;;;3.53;0.80;;;;;;;;;;4996930;28;20480;-70
2023/10/29 10:38:09;;;;;;;1.80;0.90;;;;;;;;;;4994209;28;20451;-70
2023/10/29 10:40:37;;;;;;;1.60;0.93;;;;;;;;;;4990528;28;20453;-70
2023/10/29 10:43:06;;;;;;;3.80;1.80;;;;;;;;;;4991660;28;21005;-70
2023/10/29 10:45:33;;;;;;;2.70;0.90;;;;;;;;;;4996047;28;20483;-70
2023/10/29 10:48:03;;;;;;;2.63;0.90;;;;;;;;;;4984071;28;20454;-70
2023/10/29 10:50:31;;;;;;;1.97;0.80;;;;;;;;;;4995390;28;20481;-70
2023/10/29 10:52:58;;;;;;;1.90;1.07;;;;;;;;;;4992343;28;20452;-70
2023/10/29 10:55:26;;;;;;;3.70;1.50;;;;;;;;;;4990743;28;20476;-70
2023/10/29 10:57:53;;;;;;;1.70;1.10;;;;;;;;;;4995928;28;20543;-70
2023/10/29 11:00:23;;;;;;;3.50;1.67;;;;;;;;;;4990337;28;20441;-70
2023/10/29 11:02:51;;;;;;;3.20;1.10;;;;;;;;;;4993116;28;20467;-72
2023/10/29 11:05:18;;;;;;;2.00;0.80;;;;;;;;;;4990338;28;20515;-70
2023/10/29 11:07:45;;;;;;;1.93;1.10;;;;;;;;;;4992666;28;20456;-70
2023/10/29 11:10:13;;;;;;;4.03;1.37;;;;;;;;;;4979930;28;20864;-70
2023/10/29 11:12:41;;;;;;;2.00;0.80;;;;;;;;;;4993715;28;20448;-71
2023/10/29 11:15:15;;;;;;;2.90;1.83;;;;;;;;;;4984747;28;20475;-69
2023/10/29 11:17:54;;;;;;;2.57;1.03;;;;;;;;;;4998551;28;20454;-72
2023/10/29 11:20:41;;;;;;;2.40;1.40;;;;;;;;;;4992959;28;20452;-71
2023/10/29 11:23:08;;;;;;;2.10;1.00;;;;;;;;;;4986871;28;20456;-71
2023/10/29 11:25:37;;;;;;;3.97;2.40;;;;;;;;;;4993451;28;20847;-70
2023/10/29 11:28:04;;;;;;;2.70;1.50;;;;;;;;;;4993986;28;20461;-70
2023/10/29 11:30:31;;;;;;;3.20;1.40;;;;;;;;;;4988816;28;20479;-69
2023/10/29 11:33:18;;;;;;;3.43;1.20;;;;;;;;;;4997970;28;20464;-71
2023/10/29 11:35:45;;;;;;;2.90;1.40;;;;;;;;;;4996668;28;20465;-73
2023/10/29 11:38:28;;;;;;;2.40;1.30;;;;;;;;;;5000159;28;20456;-70
2023/10/29 11:40:55;;;;;;;1.90;0.97;;;;;;;;;;4989273;28;20456;-71
2023/10/29 11:43:22;;;;;;;9.80;7.00;;;;;;;;;;4991771;28;20785;-71
2023/10/29 11:45:52;;;;;;;3.43;1.90;;;;;;;;;;4998363;28;20487;-71
2023/10/29 11:48:21;;;;;;;4.60;1.90;;;;;;;;;;4990878;28;20786;-71
2023/10/29 11:51:08;;;;;;;3.87;1.90;;;;;;;;;;4991861;28;20477;-72
2023/10/29 11:53:36;;;;;;;1.80;1.00;;;;;;;;;;5000492;28;20610;-71
2023/10/29 11:56:07;;;;;;;1.50;0.80;;;;;;;;;;4987920;28;20487;-70
2023/10/29 11:58:35;;;;;;;3.40;1.10;;;;;;;;;;4990429;28;20492;-71
2023/10/29 12:01:02;;;;;;;3.27;1.40;;;;;;;;;;4998041;28;20841;-71
2023/10/29 12:03:30;;;;;;;1.97;1.17;;;;;;;;;;4996279;28;20507;-70
2023/10/29 12:05:58;;;;;;;2.80;1.40;;;;;;;;;;4992541;28;20503;-71
2023/10/29 12:08:25;;;;;;;3.00;0.90;;;;;;;;;;4993931;28;20445;-71
2023/10/29 12:10:53;;;;;;;2.30;1.40;;;;;;;;;;4992024;28;20488;-71
2023/10/29 12:13:20;;;;;;;1.73;0.90;;;;;;;;;;4992952;28;20456;-70
2023/10/29 12:15:48;;;;;;;1.70;0.70;;;;;;;;;;4991323;28;20479;-71
2023/10/29 12:18:22;;;;;;;1.83;0.90;;;;;;;;;;4991534;28;20472;-70
2023/10/29 12:20:50;;;;;;;1.30;0.60;;;;;;;;;;4996196;28;20467;-71
2023/10/29 12:23:18;;;;;;;1.90;0.80;;;;;;;;;;4989686;28;20531;-69
2023/10/29 12:25:45;;;;;;;1.90;1.10;;;;;;;;;;4997564;28;20516;-70
2023/10/29 12:28:14;;;;;;;2.80;0.70;;;;;;;;;;4994527;28;20472;-72
2023/10/29 12:30:42;;;;;;;1.50;0.60;;;;;;;;;;4990451;28;20508;-70
2023/10/29 12:33:22;;;;;;;1.40;0.60;;;;;;;;;;4989251;28;20472;-70
2023/10/29 12:35:51;;;;;;;1.80;0.70;;;;;;;;;;4992636;28;20547;-71
2023/10/29 12:38:18;;;;;;;1.30;0.57;;;;;;;;;;4993863;28;20461;-72
2023/10/29 12:41:04;;;;;;;1.60;0.50;;;;;;;;;;4997298;28;20524;-71
2023/10/29 12:43:38;;;;;;;1.93;0.70;;;;;;;;;;4996074;28;20448;-72
2023/10/29 12:46:06;;;;;;;1.67;0.80;;;;;;;;;;4994265;28;20468;-71
2023/10/29 12:48:34;;;;;;;1.93;0.60;;;;;;;;;;4993881;28;20455;-71
2023/10/29 12:51:03;;;;;;;1.30;0.60;;;;;;;;;;4991403;28;20847;-71
2023/10/29 12:53:30;;;;;;;1.50;0.70;;;;;;;;;;4995130;28;20540;-71
2023/10/29 12:55:58;;;;;;;1.40;0.70;;;;;;;;;;4991728;28;21014;-72
2023/10/29 12:58:26;;;;;;;1.60;0.70;;;;;;;;;;4993149;28;20452;-71
2023/10/29 13:00:53;;;;;;;2.70;0.90;;;;;;;;;;4990933;28;20500;-71
2023/10/29 13:03:20;;;;;;;2.67;0.70;;;;;;;;;;4993541;28;20457;-71
2023/10/29 13:05:48;;;;;;;2.50;0.83;;;;;;;;;;4991686;28;20488;-71
2023/10/29 13:08:17;;;;;;;2.00;0.80;;;;;;;;;;4994322;28;20445;-70
2023/10/29 13:10:46;;;;;;;1.57;0.53;;;;;;;;;;4986673;28;20476;-70
2023/10/29 13:13:13;;;;;;;1.47;0.50;;;;;;;;;;4991532;28;20458;-71
2023/10/29 13:15:41;;;;;;;1.87;0.60;;;;;;;;;;4983100;28;20469;-70
2023/10/29 13:18:08;;;;;;;2.00;1.00;;;;;;;;;;4986562;28;20471;-69
2023/10/29 13:20:35;;;;;;;1.70;0.70;;;;;;;;;;4991815;28;20441;-69
2023/10/29 13:23:02;;;;;;;3.23;1.20;;;;;;;;;;4987896;28;20461;-70
2023/10/29 13:25:31;;;;;;;1.50;0.60;;;;;;;;;;4993411;28;20484;-69
2023/10/29 13:27:58;;;;;;;2.33;0.97;;;;;;;;;;4994201;28;20476;-70
2023/10/29 13:30:26;;;;;;;2.70;0.80;;;;;;;;;;4987555;28;20499;-70
2023/10/29 13:32:54;;;;;;;1.50;0.70;;;;;;;;;;4988152;28;20464;-70
2023/10/29 13:35:22;;;;;;;1.70;0.60;;;;;;;;;;4992686;28;20504;-71
2023/10/29 13:37:49;;;;;;;1.50;0.60;;;;;;;;;;4995361;28;20484;-70
2023/10/29 13:40:16;;;;;;;2.03;0.87;;;;;;;;;;4998930;28;20448;-70
2023/10/29 13:42:44;;;;;;;1.50;0.70;;;;;;;;;;4996337;28;20439;-70
2023/10/29 13:45:13;;;;;;;1.30;0.50;;;;;;;;;;4992442;28;20473;-70
2023/10/29 13:47:40;;;;;;;1.70;0.73;;;;;;;;;;4989111;28;20899;-70
2023/10/29 13:50:07;;;;;;;3.63;1.30;;;;;;;;;;4994150;28;20476;-70
2023/10/29 13:52:34;;;;;;;2.13;1.23;;;;;;;;;;4992940;28;20464;-70
2023/10/29 13:55:01;;;;;;;1.70;0.80;;;;;;;;;;4991665;28;20476;-70
2023/10/29 13:57:29;;;;;;;1.47;0.63;;;;;;;;;;4989114;28;20958;-70
2023/10/29 13:59:57;;;;;;;3.33;1.63;;;;;;;;;;4990475;28;20453;-69
2023/10/29 14:02:24;;;;;;;1.30;0.60;;;;;;;;;;4988493;28;20457;-68
2023/10/29 14:04:52;;;;;;;1.80;0.90;;;;;;;;;;4986603;28;20940;-69
2023/10/29 14:07:19;;;;;;;1.90;1.13;;;;;;;;;;5001101;28;20838;-69
2023/10/29 14:09:46;;;;;;;1.70;0.70;;;;;;;;;;4992547;28;20824;-69
2023/10/29 14:12:13;;;;;;;4.03;1.87;;;;;;;;;;4990184;28;20459;-69
2023/10/29 14:14:40;;;;;;;3.40;1.53;;;;;;;;;;4989322;28;20841;-69
2023/10/29 14:17:08;;;;;;;4.07;2.03;;;;;;;;;;4993652;28;20469;-69
2023/10/29 14:19:37;;;;;;;1.97;0.70;;;;;;;;;;4988906;28;20893;-69
2023/10/29 14:22:04;;;;;;;1.70;0.70;;;;;;;;;;4990732;28;20452;-70
2023/10/29 14:24:31;;;;;;;2.90;1.67;;;;;;;;;;4992080;28;20480;-71
2023/10/29 14:26:59;;;;;;;2.00;0.80;;;;;;;;;;4993346;28;20489;-71
2023/10/29 14:29:26;;;;;;;1.20;0.60;;;;;;;;;;4988337;28;20547;-70
2023/10/29 14:31:54;;;;;;;2.63;0.70;;;;;;;;;;4993652;28;20449;-71
2023/10/29 14:34:22;;;;;;;1.47;0.60;;;;;;;;;;4994382;28;20551;-70
2023/10/29 14:36:49;;;;;;;4.03;1.37;;;;;;;;;;4987215;28;20481;-72
2023/10/29 14:39:17;;;;;;;2.80;0.90;;;;;;;;;;4982027;28;20472;-70
2023/10/29 14:41:44;;;;;;;1.40;0.60;;;;;;;;;;4982238;28;20453;-71
2023/10/29 14:44:14;;;;;;;1.50;0.70;;;;;;;;;;4988547;28;20870;-70
2023/10/29 14:46:41;;;;;;;1.40;0.63;;;;;;;;;;4987229;28;20469;-71